sensor_id;sensor_type;location;lat;lon;timestamp;P1;durP1;ratioP1;P2;durP2;ratioP2
24389;SDS011;12510;56.468;-3.004;2022-07-23T00:01:45;2.00;;;1.23;;
24389;SDS011;12510;56.468;-3.004;2022-07-23T00:04:13;3.80;;;1.73;;
24389;SDS011;12510;56.468;-3.004;2022-07-23T00:06:39;3.58;;;1.70;;
24389;SDS011;12510;56.468;-3.004;2022-07-23T00:09:06;2.28;;;1.90;;
24389;SDS011;12510;56.468;-3.004;2022-07-23T00:11:32;3.13;;;1.70;;
24389;SDS011;12510;56.468;-3.004;2022-07-23T00:13:59;4.60;;;2.05;;
24389;SDS011;12510;56.468;-3.004;2022-07-23T00:16:25;2.97;;;1.98;;
24389;SDS011;12510;56.468;-3.004;2022-07-23T00:18:51;2.80;;;1.60;;
24389;SDS011;12510;56.468;-3.004;2022-07-23T00:21:18;2.53;;;1.20;;
24389;SDS011;12510;56.468;-3.004;2022-07-23T00:23:44;4.28;;;1.50;;
24389;SDS011;12510;56.468;-3.004;2022-07-23T00:26:11;3.10;;;1.52;;
24389;SDS011;12510;56.468;-3.004;2022-07-23T00:28:37;5.05;;;1.85;;
24389;SDS011;12510;56.468;-3.004;2022-07-23T00:31:03;3.88;;;1.50;;
24389;SDS011;12510;56.468;-3.004;2022-07-23T00:33:30;3.78;;;1.40;;
24389;SDS011;12510;56.468;-3.004;2022-07-23T00:35:57;3.70;;;1.73;;
24389;SDS011;12510;56.468;-3.004;2022-07-23T00:38:23;2.92;;;1.52;;
24389;SDS011;12510;56.468;-3.004;2022-07-23T00:40:49;4.05;;;1.88;;
24389;SDS011;12510;56.468;-3.004;2022-07-23T00:43:16;2.53;;;1.40;;
24389;SDS011;12510;56.468;-3.004;2022-07-23T00:45:42;1.67;;;1.10;;
24389;SDS011;12510;56.468;-3.004;2022-07-23T00:48:09;2.65;;;1.40;;
24389;SDS011;12510;56.468;-3.004;2022-07-23T00:50:35;3.70;;;1.80;;
24389;SDS011;12510;56.468;-3.004;2022-07-23T00:53:02;4.63;;;1.67;;
24389;SDS011;12510;56.468;-3.004;2022-07-23T00:55:28;2.72;;;1.40;;
24389;SDS011;12510;56.468;-3.004;2022-07-23T00:57:55;3.05;;;1.50;;
24389;SDS011;12510;56.468;-3.004;2022-07-23T01:00:21;4.85;;;1.73;;
24389;SDS011;12510;56.468;-3.004;2022-07-23T01:02:48;4.20;;;1.48;;
24389;SDS011;12510;56.468;-3.004;2022-07-23T01:05:15;4.90;;;1.48;;
24389;SDS011;12510;56.468;-3.004;2022-07-23T01:07:41;3.35;;;1.52;;
24389;SDS011;12510;56.468;-3.004;2022-07-23T01:10:08;2.38;;;1.50;;
24389;SDS011;12510;56.468;-3.004;2022-07-23T01:12:53;1.90;;;1.15;;
24389;SDS011;12510;56.468;-3.004;2022-07-23T01:15:20;3.03;;;1.77;;
24389;SDS011;12510;56.468;-3.004;2022-07-23T01:17:47;2.95;;;1.60;;
24389;SDS011;12510;56.468;-3.004;2022-07-23T01:20:14;2.67;;;1.35;;
24389;SDS011;12510;56.468;-3.004;2022-07-23T01:22:41;5.28;;;1.83;;
24389;SDS011;12510;56.468;-3.004;2022-07-23T01:25:07;1.77;;;1.33;;
24389;SDS011;12510;56.468;-3.004;2022-07-23T01:27:36;4.45;;;1.42;;
24389;SDS011;12510;56.468;-3.004;2022-07-23T01:30:04;1.95;;;1.45;;
24389;SDS011;12510;56.468;-3.004;2022-07-23T01:32:31;2.63;;;1.85;;
24389;SDS011;12510;56.468;-3.004;2022-07-23T01:34:57;3.72;;;1.63;;
24389;SDS011;12510;56.468;-3.004;2022-07-23T01:37:24;4.15;;;2.08;;
24389;SDS011;12510;56.468;-3.004;2022-07-23T01:39:50;3.28;;;1.40;;
24389;SDS011;12510;56.468;-3.004;2022-07-23T01:42:17;4.60;;;1.58;;
24389;SDS011;12510;56.468;-3.004;2022-07-23T01:44:44;2.83;;;1.55;;
24389;SDS011;12510;56.468;-3.004;2022-07-23T01:47:17;1.73;;;1.20;;
24389;SDS011;12510;56.468;-3.004;2022-07-23T01:49:44;7.00;;;2.05;;
24389;SDS011;12510;56.468;-3.004;2022-07-23T01:52:42;3.47;;;1.38;;
24389;SDS011;12510;56.468;-3.004;2022-07-23T01:55:08;3.45;;;2.67;;
24389;SDS011;12510;56.468;-3.004;2022-07-23T01:57:37;3.67;;;1.42;;
24389;SDS011;12510;56.468;-3.004;2022-07-23T02:00:05;2.08;;;1.63;;
24389;SDS011;12510;56.468;-3.004;2022-07-23T02:02:39;4.97;;;1.67;;
24389;SDS011;12510;56.468;-3.004;2022-07-23T02:05:06;1.95;;;1.42;;
24389;SDS011;12510;56.468;-3.004;2022-07-23T02:07:33;2.83;;;1.45;;
24389;SDS011;12510;56.468;-3.004;2022-07-23T02:09:59;3.42;;;2.10;;
24389;SDS011;12510;56.468;-3.004;2022-07-23T02:12:26;3.20;;;1.38;;
24389;SDS011;12510;56.468;-3.004;2022-07-23T02:14:54;3.90;;;1.40;;
24389;SDS011;12510;56.468;-3.004;2022-07-23T02:17:21;5.82;;;1.58;;
24389;SDS011;12510;56.468;-3.004;2022-07-23T02:19:47;4.82;;;1.67;;
24389;SDS011;12510;56.468;-3.004;2022-07-23T02:22:13;3.03;;;1.42;;
24389;SDS011;12510;56.468;-3.004;2022-07-23T02:24:40;1.98;;;1.33;;
24389;SDS011;12510;56.468;-3.004;2022-07-23T02:27:06;4.93;;;1.70;;
24389;SDS011;12510;56.468;-3.004;2022-07-23T02:29:34;2.72;;;1.95;;
24389;SDS011;12510;56.468;-3.004;2022-07-23T02:32:00;4.35;;;1.60;;
24389;SDS011;12510;56.468;-3.004;2022-07-23T02:34:27;4.13;;;2.38;;
24389;SDS011;12510;56.468;-3.004;2022-07-23T02:36:53;2.50;;;1.77;;
24389;SDS011;12510;56.468;-3.004;2022-07-23T02:39:21;3.25;;;1.70;;
24389;SDS011;12510;56.468;-3.004;2022-07-23T02:41:48;4.00;;;2.00;;
24389;SDS011;12510;56.468;-3.004;2022-07-23T02:44:14;4.15;;;1.75;;
24389;SDS011;12510;56.468;-3.004;2022-07-23T02:46:44;4.28;;;1.75;;
24389;SDS011;12510;56.468;-3.004;2022-07-23T02:49:10;4.22;;;1.80;;
24389;SDS011;12510;56.468;-3.004;2022-07-23T02:51:37;3.70;;;1.60;;
24389;SDS011;12510;56.468;-3.004;2022-07-23T02:54:06;2.03;;;1.55;;
24389;SDS011;12510;56.468;-3.004;2022-07-23T02:56:32;2.80;;;1.38;;
24389;SDS011;12510;56.468;-3.004;2022-07-23T02:58:58;6.72;;;2.00;;
24389;SDS011;12510;56.468;-3.004;2022-07-23T03:01:25;3.58;;;1.70;;
24389;SDS011;12510;56.468;-3.004;2022-07-23T03:03:51;4.68;;;2.00;;
24389;SDS011;12510;56.468;-3.004;2022-07-23T03:06:18;2.78;;;1.50;;
24389;SDS011;12510;56.468;-3.004;2022-07-23T03:08:44;3.05;;;1.65;;
24389;SDS011;12510;56.468;-3.004;2022-07-23T03:11:11;2.45;;;1.77;;
24389;SDS011;12510;56.468;-3.004;2022-07-23T03:13:38;5.05;;;2.05;;
24389;SDS011;12510;56.468;-3.004;2022-07-23T03:16:06;3.83;;;1.73;;
24389;SDS011;12510;56.468;-3.004;2022-07-23T03:18:35;2.35;;;1.75;;
24389;SDS011;12510;56.468;-3.004;2022-07-23T03:21:03;4.95;;;1.60;;
24389;SDS011;12510;56.468;-3.004;2022-07-23T03:23:29;5.35;;;1.70;;
24389;SDS011;12510;56.468;-3.004;2022-07-23T03:25:56;3.00;;;1.80;;
24389;SDS011;12510;56.468;-3.004;2022-07-23T03:28:23;2.35;;;1.60;;
24389;SDS011;12510;56.468;-3.004;2022-07-23T03:30:49;4.03;;;2.00;;
24389;SDS011;12510;56.468;-3.004;2022-07-23T03:33:16;2.05;;;1.40;;
24389;SDS011;12510;56.468;-3.004;2022-07-23T03:35:44;4.90;;;2.03;;
24389;SDS011;12510;56.468;-3.004;2022-07-23T03:38:19;2.45;;;1.30;;
24389;SDS011;12510;56.468;-3.004;2022-07-23T03:40:46;2.83;;;1.42;;
24389;SDS011;12510;56.468;-3.004;2022-07-23T03:43:12;1.92;;;1.60;;
24389;SDS011;12510;56.468;-3.004;2022-07-23T03:45:39;3.08;;;1.70;;
24389;SDS011;12510;56.468;-3.004;2022-07-23T03:48:05;2.78;;;1.63;;
24389;SDS011;12510;56.468;-3.004;2022-07-23T03:50:32;3.97;;;1.55;;
24389;SDS011;12510;56.468;-3.004;2022-07-23T03:52:58;2.28;;;1.48;;
24389;SDS011;12510;56.468;-3.004;2022-07-23T03:55:25;5.22;;;1.63;;
24389;SDS011;12510;56.468;-3.004;2022-07-23T03:57:51;3.22;;;1.30;;
24389;SDS011;12510;56.468;-3.004;2022-07-23T04:00:18;2.60;;;1.77;;
24389;SDS011;12510;56.468;-3.004;2022-07-23T04:02:49;3.78;;;1.73;;
24389;SDS011;12510;56.468;-3.004;2022-07-23T04:05:16;2.45;;;1.60;;
24389;SDS011;12510;56.468;-3.004;2022-07-23T04:07:44;2.90;;;1.80;;
24389;SDS011;12510;56.468;-3.004;2022-07-23T04:10:10;2.60;;;1.70;;
24389;SDS011;12510;56.468;-3.004;2022-07-23T04:12:37;2.55;;;1.40;;
24389;SDS011;12510;56.468;-3.004;2022-07-23T04:15:04;3.17;;;1.80;;
24389;SDS011;12510;56.468;-3.004;2022-07-23T04:17:33;5.13;;;1.70;;
24389;SDS011;12510;56.468;-3.004;2022-07-23T04:20:00;1.92;;;1.30;;
24389;SDS011;12510;56.468;-3.004;2022-07-23T04:22:33;2.92;;;1.75;;
24389;SDS011;12510;56.468;-3.004;2022-07-23T04:24:59;4.97;;;1.48;;
24389;SDS011;12510;56.468;-3.004;2022-07-23T04:27:26;4.03;;;1.95;;
24389;SDS011;12510;56.468;-3.004;2022-07-23T04:29:52;2.47;;;1.55;;
24389;SDS011;12510;56.468;-3.004;2022-07-23T04:32:18;3.55;;;1.50;;
24389;SDS011;12510;56.468;-3.004;2022-07-23T04:34:45;5.50;;;2.03;;
24389;SDS011;12510;56.468;-3.004;2022-07-23T04:37:12;2.67;;;1.85;;
24389;SDS011;12510;56.468;-3.004;2022-07-23T04:39:39;3.38;;;2.03;;
24389;SDS011;12510;56.468;-3.004;2022-07-23T04:42:05;4.55;;;1.45;;
24389;SDS011;12510;56.468;-3.004;2022-07-23T04:44:32;3.55;;;1.73;;
24389;SDS011;12510;56.468;-3.004;2022-07-23T04:46:59;3.05;;;1.83;;
24389;SDS011;12510;56.468;-3.004;2022-07-23T04:49:25;3.10;;;1.60;;
24389;SDS011;12510;56.468;-3.004;2022-07-23T04:51:52;5.90;;;2.45;;
24389;SDS011;12510;56.468;-3.004;2022-07-23T04:54:18;4.18;;;1.60;;
24389;SDS011;12510;56.468;-3.004;2022-07-23T04:56:44;4.05;;;1.40;;
24389;SDS011;12510;56.468;-3.004;2022-07-23T04:59:11;5.85;;;2.08;;
24389;SDS011;12510;56.468;-3.004;2022-07-23T05:01:38;5.57;;;1.98;;
24389;SDS011;12510;56.468;-3.004;2022-07-23T05:04:04;3.10;;;1.40;;
24389;SDS011;12510;56.468;-3.004;2022-07-23T05:06:34;2.25;;;1.30;;
24389;SDS011;12510;56.468;-3.004;2022-07-23T05:09:00;4.53;;;2.65;;
24389;SDS011;12510;56.468;-3.004;2022-07-23T05:11:27;2.28;;;1.35;;
24389;SDS011;12510;56.468;-3.004;2022-07-23T05:13:54;3.42;;;1.30;;
24389;SDS011;12510;56.468;-3.004;2022-07-23T05:16:21;4.45;;;1.50;;
24389;SDS011;12510;56.468;-3.004;2022-07-23T05:18:47;2.90;;;1.60;;
24389;SDS011;12510;56.468;-3.004;2022-07-23T05:21:14;3.97;;;1.58;;
24389;SDS011;12510;56.468;-3.004;2022-07-23T05:23:40;6.35;;;2.45;;
24389;SDS011;12510;56.468;-3.004;2022-07-23T05:26:07;2.85;;;1.52;;
24389;SDS011;12510;56.468;-3.004;2022-07-23T05:28:34;1.80;;;1.40;;
24389;SDS011;12510;56.468;-3.004;2022-07-23T05:31:01;3.38;;;1.58;;
24389;SDS011;12510;56.468;-3.004;2022-07-23T05:33:27;5.15;;;1.85;;
24389;SDS011;12510;56.468;-3.004;2022-07-23T05:35:54;3.15;;;1.70;;
24389;SDS011;12510;56.468;-3.004;2022-07-23T05:38:28;4.35;;;1.90;;
24389;SDS011;12510;56.468;-3.004;2022-07-23T05:43:25;2.78;;;1.73;;
24389;SDS011;12510;56.468;-3.004;2022-07-23T05:45:52;3.70;;;1.83;;
24389;SDS011;12510;56.468;-3.004;2022-07-23T05:48:19;2.42;;;1.50;;
24389;SDS011;12510;56.468;-3.004;2022-07-23T05:51:03;2.25;;;1.20;;
24389;SDS011;12510;56.468;-3.004;2022-07-23T05:53:34;3.33;;;1.92;;
24389;SDS011;12510;56.468;-3.004;2022-07-23T05:56:09;4.93;;;2.05;;
24389;SDS011;12510;56.468;-3.004;2022-07-23T05:58:37;5.70;;;1.55;;
24389;SDS011;12510;56.468;-3.004;2022-07-23T06:01:03;2.55;;;1.35;;
24389;SDS011;12510;56.468;-3.004;2022-07-23T06:03:38;5.35;;;1.42;;
24389;SDS011;12510;56.468;-3.004;2022-07-23T06:06:05;6.18;;;2.08;;
24389;SDS011;12510;56.468;-3.004;2022-07-23T06:08:32;3.05;;;1.67;;
24389;SDS011;12510;56.468;-3.004;2022-07-23T06:10:59;4.22;;;1.70;;
24389;SDS011;12510;56.468;-3.004;2022-07-23T06:13:26;1.92;;;1.80;;
24389;SDS011;12510;56.468;-3.004;2022-07-23T06:15:53;6.38;;;2.38;;
24389;SDS011;12510;56.468;-3.004;2022-07-23T06:18:19;10.23;;;2.95;;
24389;SDS011;12510;56.468;-3.004;2022-07-23T06:20:46;9.38;;;2.10;;
24389;SDS011;12510;56.468;-3.004;2022-07-23T06:23:12;4.22;;;1.85;;
24389;SDS011;12510;56.468;-3.004;2022-07-23T06:25:39;5.40;;;2.53;;
24389;SDS011;12510;56.468;-3.004;2022-07-23T06:28:05;5.13;;;1.73;;
24389;SDS011;12510;56.468;-3.004;2022-07-23T06:30:32;5.78;;;1.80;;
24389;SDS011;12510;56.468;-3.004;2022-07-23T06:32:58;3.05;;;1.60;;
24389;SDS011;12510;56.468;-3.004;2022-07-23T06:35:24;5.07;;;1.90;;
24389;SDS011;12510;56.468;-3.004;2022-07-23T06:37:51;2.90;;;1.83;;
24389;SDS011;12510;56.468;-3.004;2022-07-23T06:40:17;2.85;;;1.70;;
24389;SDS011;12510;56.468;-3.004;2022-07-23T06:42:44;3.05;;;1.40;;
24389;SDS011;12510;56.468;-3.004;2022-07-23T06:45:16;7.57;;;1.83;;
24389;SDS011;12510;56.468;-3.004;2022-07-23T06:47:43;3.45;;;1.80;;
24389;SDS011;12510;56.468;-3.004;2022-07-23T06:50:10;2.22;;;1.40;;
24389;SDS011;12510;56.468;-3.004;2022-07-23T06:52:36;7.18;;;1.90;;
24389;SDS011;12510;56.468;-3.004;2022-07-23T06:55:05;5.43;;;1.63;;
24389;SDS011;12510;56.468;-3.004;2022-07-23T06:57:32;4.82;;;2.00;;
24389;SDS011;12510;56.468;-3.004;2022-07-23T06:59:58;3.75;;;1.75;;
24389;SDS011;12510;56.468;-3.004;2022-07-23T07:02:25;2.53;;;1.73;;
24389;SDS011;12510;56.468;-3.004;2022-07-23T07:04:51;2.95;;;1.65;;
24389;SDS011;12510;56.468;-3.004;2022-07-23T07:07:19;2.83;;;1.35;;
24389;SDS011;12510;56.468;-3.004;2022-07-23T07:09:45;4.82;;;1.65;;
24389;SDS011;12510;56.468;-3.004;2022-07-23T07:12:11;4.30;;;1.70;;
24389;SDS011;12510;56.468;-3.004;2022-07-23T07:14:38;3.55;;;1.70;;
24389;SDS011;12510;56.468;-3.004;2022-07-23T07:17:04;2.95;;;1.38;;
24389;SDS011;12510;56.468;-3.004;2022-07-23T07:19:31;5.32;;;1.98;;
24389;SDS011;12510;56.468;-3.004;2022-07-23T07:21:57;4.70;;;1.52;;
24389;SDS011;12510;56.468;-3.004;2022-07-23T07:24:23;3.85;;;1.73;;
24389;SDS011;12510;56.468;-3.004;2022-07-23T07:26:50;2.97;;;1.67;;
24389;SDS011;12510;56.468;-3.004;2022-07-23T07:29:16;4.20;;;2.20;;
24389;SDS011;12510;56.468;-3.004;2022-07-23T07:31:43;3.30;;;1.50;;
24389;SDS011;12510;56.468;-3.004;2022-07-23T07:34:09;4.10;;;2.13;;
24389;SDS011;12510;56.468;-3.004;2022-07-23T07:36:36;4.28;;;2.00;;
24389;SDS011;12510;56.468;-3.004;2022-07-23T07:39:03;3.38;;;2.03;;
24389;SDS011;12510;56.468;-3.004;2022-07-23T07:41:31;5.20;;;2.50;;
24389;SDS011;12510;56.468;-3.004;2022-07-23T07:43:57;7.68;;;1.98;;
24389;SDS011;12510;56.468;-3.004;2022-07-23T07:46:24;7.57;;;2.40;;
24389;SDS011;12510;56.468;-3.004;2022-07-23T07:48:53;5.67;;;1.80;;
24389;SDS011;12510;56.468;-3.004;2022-07-23T07:51:20;6.78;;;2.25;;
24389;SDS011;12510;56.468;-3.004;2022-07-23T07:53:46;4.63;;;2.00;;
24389;SDS011;12510;56.468;-3.004;2022-07-23T07:56:13;4.53;;;2.03;;
24389;SDS011;12510;56.468;-3.004;2022-07-23T07:58:39;4.07;;;2.20;;
24389;SDS011;12510;56.468;-3.004;2022-07-23T08:01:05;3.63;;;2.45;;
24389;SDS011;12510;56.468;-3.004;2022-07-23T08:03:32;3.45;;;2.10;;
24389;SDS011;12510;56.468;-3.004;2022-07-23T08:05:58;3.95;;;2.35;;
24389;SDS011;12510;56.468;-3.004;2022-07-23T08:08:25;2.10;;;1.77;;
24389;SDS011;12510;56.468;-3.004;2022-07-23T08:10:51;3.58;;;1.90;;
24389;SDS011;12510;56.468;-3.004;2022-07-23T08:13:18;3.22;;;2.20;;
24389;SDS011;12510;56.468;-3.004;2022-07-23T08:15:44;2.67;;;2.15;;
24389;SDS011;12510;56.468;-3.004;2022-07-23T08:18:10;3.38;;;1.80;;
24389;SDS011;12510;56.468;-3.004;2022-07-23T08:20:37;5.95;;;2.17;;
24389;SDS011;12510;56.468;-3.004;2022-07-23T08:23:04;2.63;;;2.40;;
24389;SDS011;12510;56.468;-3.004;2022-07-23T08:25:36;2.93;;;2.53;;
24389;SDS011;12510;56.468;-3.004;2022-07-23T08:28:05;3.15;;;2.20;;
24389;SDS011;12510;56.468;-3.004;2022-07-23T08:30:35;3.08;;;2.72;;
24389;SDS011;12510;56.468;-3.004;2022-07-23T08:33:03;2.97;;;2.15;;
24389;SDS011;12510;56.468;-3.004;2022-07-23T08:35:33;4.07;;;2.70;;
24389;SDS011;12510;56.468;-3.004;2022-07-23T08:38:02;4.10;;;2.63;;
24389;SDS011;12510;56.468;-3.004;2022-07-23T08:40:31;4.22;;;2.55;;
24389;SDS011;12510;56.468;-3.004;2022-07-23T08:45:30;2.83;;;2.50;;
24389;SDS011;12510;56.468;-3.004;2022-07-23T08:47:59;4.32;;;2.95;;
24389;SDS011;12510;56.468;-3.004;2022-07-23T08:50:25;7.68;;;3.20;;
24389;SDS011;12510;56.468;-3.004;2022-07-23T08:52:52;3.35;;;2.72;;
24389;SDS011;12510;56.468;-3.004;2022-07-23T08:55:20;4.47;;;3.35;;
24389;SDS011;12510;56.468;-3.004;2022-07-23T08:57:48;3.83;;;2.72;;
24389;SDS011;12510;56.468;-3.004;2022-07-23T09:00:16;3.30;;;2.70;;
24389;SDS011;12510;56.468;-3.004;2022-07-23T09:02:44;5.32;;;2.83;;
24389;SDS011;12510;56.468;-3.004;2022-07-23T09:05:11;3.67;;;2.85;;
24389;SDS011;12510;56.468;-3.004;2022-07-23T09:08:02;4.22;;;3.10;;
24389;SDS011;12510;56.468;-3.004;2022-07-23T09:10:42;3.28;;;2.97;;
24389;SDS011;12510;56.468;-3.004;2022-07-23T09:16:12;4.97;;;3.08;;
24389;SDS011;12510;56.468;-3.004;2022-07-23T09:18:49;4.18;;;3.75;;
24389;SDS011;12510;56.468;-3.004;2022-07-23T09:29:21;3.45;;;2.75;;
24389;SDS011;12510;56.468;-3.004;2022-07-23T09:36:50;4.40;;;3.15;;
24389;SDS011;12510;56.468;-3.004;2022-07-23T09:39:29;8.00;;;3.92;;
24389;SDS011;12510;56.468;-3.004;2022-07-23T09:41:57;3.97;;;3.63;;
24389;SDS011;12510;56.468;-3.004;2022-07-23T09:44:42;4.50;;;4.10;;
24389;SDS011;12510;56.468;-3.004;2022-07-23T09:47:23;7.00;;;3.75;;
24389;SDS011;12510;56.468;-3.004;2022-07-23T09:52:31;6.97;;;4.00;;
24389;SDS011;12510;56.468;-3.004;2022-07-23T09:55:00;5.88;;;3.78;;
24389;SDS011;12510;56.468;-3.004;2022-07-23T09:57:29;4.40;;;4.00;;
24389;SDS011;12510;56.468;-3.004;2022-07-23T10:00:00;4.75;;;4.25;;
24389;SDS011;12510;56.468;-3.004;2022-07-23T10:02:31;5.85;;;4.60;;
24389;SDS011;12510;56.468;-3.004;2022-07-23T10:05:17;6.22;;;4.57;;
24389;SDS011;12510;56.468;-3.004;2022-07-23T10:07:58;5.13;;;4.35;;
24389;SDS011;12510;56.468;-3.004;2022-07-23T10:10:45;5.43;;;4.80;;
24389;SDS011;12510;56.468;-3.004;2022-07-23T10:13:36;5.95;;;4.78;;
24389;SDS011;12510;56.468;-3.004;2022-07-23T10:16:30;6.95;;;6.05;;
24389;SDS011;12510;56.468;-3.004;2022-07-23T10:18:56;5.50;;;4.72;;
24389;SDS011;12510;56.468;-3.004;2022-07-23T10:21:44;5.55;;;4.97;;
24389;SDS011;12510;56.468;-3.004;2022-07-23T10:29:58;6.35;;;4.78;;
24389;SDS011;12510;56.468;-3.004;2022-07-23T10:35:43;5.03;;;4.47;;
24389;SDS011;12510;56.468;-3.004;2022-07-23T10:40:57;5.20;;;4.70;;
24389;SDS011;12510;56.468;-3.004;2022-07-23T10:43:25;6.43;;;4.82;;
24389;SDS011;12510;56.468;-3.004;2022-07-23T10:45:52;8.50;;;5.30;;
24389;SDS011;12510;56.468;-3.004;2022-07-23T10:48:21;7.25;;;5.40;;
24389;SDS011;12510;56.468;-3.004;2022-07-23T10:54:14;6.90;;;4.78;;
24389;SDS011;12510;56.468;-3.004;2022-07-23T10:56:50;6.28;;;5.43;;
24389;SDS011;12510;56.468;-3.004;2022-07-23T10:59:30;6.30;;;5.40;;
24389;SDS011;12510;56.468;-3.004;2022-07-23T11:04:53;7.75;;;5.68;;
24389;SDS011;12510;56.468;-3.004;2022-07-23T11:07:19;6.55;;;5.50;;
24389;SDS011;12510;56.468;-3.004;2022-07-23T11:09:46;7.45;;;5.75;;
24389;SDS011;12510;56.468;-3.004;2022-07-23T11:17:32;6.93;;;5.90;;
24389;SDS011;12510;56.468;-3.004;2022-07-23T11:25:10;7.45;;;6.57;;
24389;SDS011;12510;56.468;-3.004;2022-07-23T11:27:38;8.75;;;6.25;;
24389;SDS011;12510;56.468;-3.004;2022-07-23T11:30:09;9.57;;;7.50;;
24389;SDS011;12510;56.468;-3.004;2022-07-23T11:32:37;9.05;;;7.10;;
24389;SDS011;12510;56.468;-3.004;2022-07-23T11:35:18;6.88;;;6.18;;
24389;SDS011;12510;56.468;-3.004;2022-07-23T11:37:47;7.35;;;5.70;;
24389;SDS011;12510;56.468;-3.004;2022-07-23T11:40:15;8.95;;;6.40;;
24389;SDS011;12510;56.468;-3.004;2022-07-23T11:42:53;5.97;;;5.38;;
24389;SDS011;12510;56.468;-3.004;2022-07-23T11:45:40;7.22;;;6.05;;
24389;SDS011;12510;56.468;-3.004;2022-07-23T11:48:09;6.03;;;5.22;;
24389;SDS011;12510;56.468;-3.004;2022-07-23T11:50:42;5.90;;;4.80;;
24389;SDS011;12510;56.468;-3.004;2022-07-23T11:53:08;6.07;;;5.10;;
24389;SDS011;12510;56.468;-3.004;2022-07-23T11:55:35;10.10;;;5.85;;
24389;SDS011;12510;56.468;-3.004;2022-07-23T11:58:01;7.20;;;5.25;;
24389;SDS011;12510;56.468;-3.004;2022-07-23T12:00:29;8.45;;;5.85;;
24389;SDS011;12510;56.468;-3.004;2022-07-23T12:02:58;5.95;;;5.35;;
24389;SDS011;12510;56.468;-3.004;2022-07-23T12:05:28;6.25;;;5.60;;
24389;SDS011;12510;56.468;-3.004;2022-07-23T12:10:27;6.45;;;5.65;;
24389;SDS011;12510;56.468;-3.004;2022-07-23T12:12:56;8.05;;;6.35;;
24389;SDS011;12510;56.468;-3.004;2022-07-23T12:15:34;8.35;;;5.70;;
24389;SDS011;12510;56.468;-3.004;2022-07-23T12:18:10;7.38;;;6.78;;
24389;SDS011;12510;56.468;-3.004;2022-07-23T12:20:48;8.20;;;7.47;;
24389;SDS011;12510;56.468;-3.004;2022-07-23T12:23:17;10.07;;;7.45;;
24389;SDS011;12510;56.468;-3.004;2022-07-23T12:25:45;7.63;;;6.93;;
24389;SDS011;12510;56.468;-3.004;2022-07-23T12:28:17;6.93;;;6.18;;
24389;SDS011;12510;56.468;-3.004;2022-07-23T12:33:23;7.65;;;6.00;;
24389;SDS011;12510;56.468;-3.004;2022-07-23T12:35:58;6.28;;;5.68;;
24389;SDS011;12510;56.468;-3.004;2022-07-23T12:38:27;6.28;;;5.20;;
24389;SDS011;12510;56.468;-3.004;2022-07-23T12:40:58;6.45;;;5.95;;
24389;SDS011;12510;56.468;-3.004;2022-07-23T12:43:29;7.03;;;5.25;;
24389;SDS011;12510;56.468;-3.004;2022-07-23T12:46:02;6.57;;;4.80;;
24389;SDS011;12510;56.468;-3.004;2022-07-23T12:48:31;5.30;;;4.72;;
24389;SDS011;12510;56.468;-3.004;2022-07-23T12:51:03;5.32;;;4.80;;
24389;SDS011;12510;56.468;-3.004;2022-07-23T12:53:42;5.18;;;4.57;;
24389;SDS011;12510;56.468;-3.004;2022-07-23T12:58:44;4.78;;;4.28;;
24389;SDS011;12510;56.468;-3.004;2022-07-23T13:01:32;5.80;;;4.25;;
24389;SDS011;12510;56.468;-3.004;2022-07-23T13:04:04;4.32;;;3.70;;
24389;SDS011;12510;56.468;-3.004;2022-07-23T13:06:34;8.40;;;3.80;;
24389;SDS011;12510;56.468;-3.004;2022-07-23T13:09:04;3.75;;;3.20;;
24389;SDS011;12510;56.468;-3.004;2022-07-23T13:11:32;3.67;;;3.38;;
24389;SDS011;12510;56.468;-3.004;2022-07-23T13:13:59;4.30;;;3.30;;
24389;SDS011;12510;56.468;-3.004;2022-07-23T13:16:27;3.83;;;3.53;;
24389;SDS011;12510;56.468;-3.004;2022-07-23T13:18:54;4.68;;;3.00;;
24389;SDS011;12510;56.468;-3.004;2022-07-23T13:21:22;6.03;;;3.60;;
24389;SDS011;12510;56.468;-3.004;2022-07-23T13:23:49;4.88;;;3.90;;
24389;SDS011;12510;56.468;-3.004;2022-07-23T13:26:16;5.65;;;4.20;;
24389;SDS011;12510;56.468;-3.004;2022-07-23T13:28:43;5.43;;;4.03;;
24389;SDS011;12510;56.468;-3.004;2022-07-23T13:31:09;8.27;;;4.82;;
24389;SDS011;12510;56.468;-3.004;2022-07-23T13:33:36;5.90;;;4.47;;
24389;SDS011;12510;56.468;-3.004;2022-07-23T13:36:02;5.68;;;4.30;;
24389;SDS011;12510;56.468;-3.004;2022-07-23T13:38:29;6.97;;;4.90;;
24389;SDS011;12510;56.468;-3.004;2022-07-23T13:40:56;4.85;;;4.45;;
24389;SDS011;12510;56.468;-3.004;2022-07-23T13:43:23;6.55;;;4.85;;
24389;SDS011;12510;56.468;-3.004;2022-07-23T13:45:51;6.93;;;5.30;;
24389;SDS011;12510;56.468;-3.004;2022-07-23T13:48:19;8.07;;;5.47;;
24389;SDS011;12510;56.468;-3.004;2022-07-23T13:50:46;5.25;;;4.75;;
24389;SDS011;12510;56.468;-3.004;2022-07-23T13:53:14;5.93;;;5.10;;
24389;SDS011;12510;56.468;-3.004;2022-07-23T13:55:42;7.72;;;5.30;;
24389;SDS011;12510;56.468;-3.004;2022-07-23T13:58:10;6.88;;;4.88;;
24389;SDS011;12510;56.468;-3.004;2022-07-23T14:00:39;10.30;;;5.68;;
24389;SDS011;12510;56.468;-3.004;2022-07-23T14:03:11;7.60;;;6.15;;
24389;SDS011;12510;56.468;-3.004;2022-07-23T14:05:37;5.45;;;4.43;;
24389;SDS011;12510;56.468;-3.004;2022-07-23T14:08:04;7.40;;;5.00;;
24389;SDS011;12510;56.468;-3.004;2022-07-23T14:10:30;8.07;;;5.45;;
24389;SDS011;12510;56.468;-3.004;2022-07-23T14:12:57;12.27;;;6.07;;
24389;SDS011;12510;56.468;-3.004;2022-07-23T14:15:25;6.45;;;4.38;;
24389;SDS011;12510;56.468;-3.004;2022-07-23T14:17:53;7.07;;;4.88;;
24389;SDS011;12510;56.468;-3.004;2022-07-23T14:20:21;7.15;;;4.50;;
24389;SDS011;12510;56.468;-3.004;2022-07-23T14:22:48;9.68;;;4.45;;
24389;SDS011;12510;56.468;-3.004;2022-07-23T14:25:15;7.05;;;4.65;;
24389;SDS011;12510;56.468;-3.004;2022-07-23T14:27:42;4.97;;;4.45;;
24389;SDS011;12510;56.468;-3.004;2022-07-23T14:30:10;7.28;;;4.80;;
24389;SDS011;12510;56.468;-3.004;2022-07-23T14:32:38;10.20;;;5.78;;
24389;SDS011;12510;56.468;-3.004;2022-07-23T14:35:04;8.13;;;5.47;;
24389;SDS011;12510;56.468;-3.004;2022-07-23T14:37:31;10.35;;;6.55;;
24389;SDS011;12510;56.468;-3.004;2022-07-23T14:39:58;8.95;;;5.28;;
24389;SDS011;12510;56.468;-3.004;2022-07-23T14:42:25;6.97;;;4.38;;
24389;SDS011;12510;56.468;-3.004;2022-07-23T14:44:51;6.90;;;4.30;;
24389;SDS011;12510;56.468;-3.004;2022-07-23T14:47:18;5.35;;;3.60;;
24389;SDS011;12510;56.468;-3.004;2022-07-23T14:49:44;3.67;;;1.75;;
24389;SDS011;12510;56.468;-3.004;2022-07-23T14:52:11;4.40;;;2.17;;
24389;SDS011;12510;56.468;-3.004;2022-07-23T14:54:37;3.53;;;1.40;;
24389;SDS011;12510;56.468;-3.004;2022-07-23T14:57:03;2.95;;;1.50;;
24389;SDS011;12510;56.468;-3.004;2022-07-23T14:59:30;2.10;;;1.45;;
24389;SDS011;12510;56.468;-3.004;2022-07-23T15:01:57;3.22;;;2.00;;
24389;SDS011;12510;56.468;-3.004;2022-07-23T15:04:24;3.15;;;1.98;;
24389;SDS011;12510;56.468;-3.004;2022-07-23T15:06:51;3.53;;;1.67;;
24389;SDS011;12510;56.468;-3.004;2022-07-23T15:09:17;3.40;;;1.15;;
24389;SDS011;12510;56.468;-3.004;2022-07-23T15:11:44;1.80;;;1.23;;
24389;SDS011;12510;56.468;-3.004;2022-07-23T15:14:10;2.40;;;1.50;;
24389;SDS011;12510;56.468;-3.004;2022-07-23T15:16:37;1.15;;;0.98;;
24389;SDS011;12510;56.468;-3.004;2022-07-23T15:19:03;1.30;;;1.20;;
24389;SDS011;12510;56.468;-3.004;2022-07-23T15:21:30;2.15;;;1.13;;
24389;SDS011;12510;56.468;-3.004;2022-07-23T15:23:58;1.13;;;1.00;;
24389;SDS011;12510;56.468;-3.004;2022-07-23T15:26:28;1.98;;;1.00;;
24389;SDS011;12510;56.468;-3.004;2022-07-23T15:28:56;5.75;;;3.15;;
24389;SDS011;12510;56.468;-3.004;2022-07-23T15:31:24;5.47;;;2.22;;
24389;SDS011;12510;56.468;-3.004;2022-07-23T15:33:51;2.80;;;1.40;;
24389;SDS011;12510;56.468;-3.004;2022-07-23T15:36:18;1.17;;;1.08;;
24389;SDS011;12510;56.468;-3.004;2022-07-23T15:38:45;4.28;;;2.05;;
24389;SDS011;12510;56.468;-3.004;2022-07-23T15:41:12;5.53;;;3.22;;